Oriental Freesia — ZGCD7 — position and weather

sailwx.info

Track history (hours):
 
Tides and Currents Weather Stations Pressure Air Temp Water Temp Dewpoint Dewpoint Depression Visibility Wind Speed Wind Dir Waves Ship Positions

Oriental Freesia

Last reported at 2017-Feb-19 20:28 UTC. Time now 2017-Feb-19 21:18 UTC.
Position N 51°53' E 004°20'.

Length 134 m; draft 7.4 m.

Type: Ship (hazmat cat A). MMSI: 319349000.

Date/timePositionNaut miles runAvg speedWind from/ knotsBaromVisibWave heightAir tempDewpointWater temp
2017-Feb-19 20:28N 51°53' E 004°20'0 0.0
2017-Feb-19 19:31N 51°53' E 004°21'0 0.0
2017-Feb-19 18:31N 51°53' E 004°21'0 0.0
2017-Feb-19 17:31N 51°53' E 004°21'0 0.0
2017-Feb-19 16:19N 51°53' E 004°20'0 0.0
2017-Feb-19 15:31N 51°53' E 004°20'0 0.0
2017-Feb-19 14:29N 51°53' E 004°20'1 1.0
2017-Feb-19 13:33N 51°54' E 004°19'1 0.5
2017-Feb-19 12:32N 51°53' E 004°19'0 0.0
2017-Feb-19 11:32N 51°53' E 004°19'0 0.0
2017-Feb-19 10:32N 51°53' E 004°19'0 0.0
2017-Feb-19 09:33N 51°53' E 004°19'0 0.0
2017-Feb-19 08:33N 51°53' E 004°19'0 0.0
2017-Feb-19 07:32N 51°53' E 004°19'0 0.0
2017-Feb-19 06:32N 51°53' E 004°19'0 0.0
2017-Feb-19 05:32N 51°53' E 004°19'0 0.0
2017-Feb-19 04:33N 51°53' E 004°19'0 0.0
2017-Feb-19 03:29N 51°53' E 004°19'0 0.0
2017-Feb-19 02:33N 51°53' E 004°19'0 0.0
2017-Feb-19 01:33N 51°53' E 004°19'0 0.0
2017-Feb-19 00:32N 51°53' E 004°19'0 0.0
2017-Feb-18 23:33N 51°53' E 004°19'0 0.0
2017-Feb-18 22:33N 51°53' E 004°19'0 0.0
2017-Feb-18 21:33N 51°53' E 004°19'2 2.1
2017-Feb-18 20:34N 51°53' E 004°22'0 0.3
2017-Feb-18 19:05N 51°53' E 004°23'0 0.0
2017-Feb-18 18:11N 51°53' E 004°23'0 0.0
2017-Feb-18 17:29N 51°53' E 004°23'0 0.0
2017-Feb-18 16:29N 51°53' E 004°23'0 0.0
2017-Feb-18 15:27N 51°53' E 004°23'0 0.0
2017-Feb-18 12:33N 51°53' E 004°23'0 0.0
2017-Feb-18 11:27N 51°53' E 004°23'0 0.0
2017-Feb-18 10:18N 51°53' E 004°23'0 0.0
2017-Feb-18 09:33N 51°53' E 004°23'0 0.0
2017-Feb-18 08:33N 51°53' E 004°23'0 0.0
2017-Feb-18 07:18N 51°53' E 004°23'0 0.0
2017-Feb-18 05:27N 51°53' E 004°23'0 0.0
2017-Feb-18 04:24N 51°53' E 004°23'0 0.0
2017-Feb-17 22:08N 51°53' E 004°23'0 0.0
2017-Feb-17 19:18N 51°53' E 004°23'0 0.0
2017-Feb-17 17:24N 51°53' E 004°23'0 0.0
2017-Feb-17 16:30N 51°53' E 004°23'0 0.0
2017-Feb-17 15:06N 51°53' E 004°23'0 0.0
2017-Feb-17 14:12N 51°53' E 004°23'0 0.0
2017-Feb-17 13:24N 51°53' E 004°23'0 0.0
2017-Feb-17 11:30N 51°53' E 004°23'0 0.0
2017-Feb-17 10:34N 51°53' E 004°23'3 3.4
2017-Feb-17 09:33N 51°53' E 004°17'1 0.7
2017-Feb-17 08:34N 51°53' E 004°16'0 0.0
2017-Feb-17 07:34N 51°53' E 004°16'0 0.0
2017-Feb-17 06:34N 51°53' E 004°16'0 0.0
2017-Feb-17 05:34N 51°53' E 004°16'0 0.0
2017-Feb-17 04:33N 51°53' E 004°16'0 0.0
2017-Feb-17 03:34N 51°53' E 004°16'0 0.0
2017-Feb-17 02:33N 51°53' E 004°16'0 0.0
2017-Feb-17 01:34N 51°53' E 004°16'0 0.0
2017-Feb-17 00:34N 51°53' E 004°16'0 0.0
2017-Feb-16 23:33N 51°53' E 004°16'0 0.0
2017-Feb-16 22:33N 51°53' E 004°16'0 0.0
2017-Feb-16 21:34N 51°53' E 004°16'0 0.0
2017-Feb-16 20:34N 51°53' E 004°16'0 0.0
2017-Feb-16 19:33N 51°53' E 004°16'0 0.0
2017-Feb-16 18:34N 51°53' E 004°16'0 0.0
2017-Feb-16 17:34N 51°53' E 004°16'0 0.0
2017-Feb-16 16:34N 51°53' E 004°16'0 0.0
2017-Feb-16 15:34N 51°53' E 004°16'0 0.0
2017-Feb-16 14:33N 51°53' E 004°16'2 1.5
2017-Feb-16 13:33N 51°54' E 004°18'7 7.0
2017-Feb-16 12:34N 51°58' E 004°09'8 8.3
2017-Feb-16 11:34N 51°60' E 003°56'7 7.0
2017-Feb-16 10:34N 51°59' E 003°45'22 9.1
2017-Feb-16 08:12N 51°52' E 003°11'710.4
2017-Feb-16 07:32N 51°50' E 003°00'1110.8
2017-Feb-16 06:33N 51°47' E 002°44'1211.2
2017-Feb-16 05:28N 51°40' E 002°29'1111.9
2017-Feb-16 04:34N 51°31' E 002°18'1211.6
2017-Feb-16 03:33N 51°22' E 002°07'1111.3
2017-Feb-16 02:33N 51°12' E 001°58'1312.6
2017-Feb-16 01:33N 51°04' E 001°43'1212.3
2017-Feb-16 00:33N 50°55' E 001°30'6010.0
2017-Feb-15 18:33N 50°22' E 000°11'1010.1
2017-Feb-15 17:33N 50°19' W 000°04'10612.6
2017-Feb-15 09:07N 49°50' W 002°43'813.4
2017-Feb-15 08:33N 49°48' W 002°54'1313.0
2017-Feb-15 07:33N 49°41' W 003°12'10210.9
2017-Feb-14 22:14N 48°51' W 005°27'  
2017-Feb-12 14:31N 39°15' W 009°57'1111.6
2017-Feb-12 13:33N 39°04' W 009°57'1111.4
2017-Feb-12 12:33N 38°52' W 009°57'1111.1
2017-Feb-12 11:33N 38°41' W 009°56'1111.0
2017-Feb-12 10:33N 38°30' W 009°53'1111.1
2017-Feb-12 09:33N 38°19' W 009°50'1311.2
2017-Feb-12 08:22N 38°06' W 009°46'238 9.5
2017-Feb-11 07:22N 35°57' W 005°36'7 8.2
2017-Feb-11 06:34N 35°60' W 005°29'9 9.0
2017-Feb-11 05:34N 36°02' W 005°18'10 9.5
2017-Feb-11 04:33N 36°05' W 005°07'  
Track history (hours):
 
Tides and Currents Weather Stations Pressure Air Temp Water Temp Dewpoint Dewpoint Depression Visibility Wind Speed Wind Dir Waves Ship Positions

Oriental Freesia

Last reported at 2017-Feb-19 20:28 UTC. Time now 2017-Feb-19 21:18 UTC.
Position N 51°53' E 004°20'.

Length 134 m; draft 7.4 m.

Type: Ship (hazmat cat A). MMSI: 319349000.

Date/timePositionNaut miles runAvg speedWind from/ knotsBaromVisibWave heightAir tempDewpointWater temp
2017-Feb-19 20:28N 51°53' E 004°20'0 0.0
2017-Feb-19 19:31N 51°53' E 004°21'0 0.0
2017-Feb-19 18:31N 51°53' E 004°21'0 0.0
2017-Feb-19 17:31N 51°53' E 004°21'0 0.0
2017-Feb-19 16:19N 51°53' E 004°20'0 0.0
2017-Feb-19 15:31N 51°53' E 004°20'0 0.0
2017-Feb-19 14:29N 51°53' E 004°20'1 1.0
2017-Feb-19 13:33N 51°54' E 004°19'1 0.5
2017-Feb-19 12:32N 51°53' E 004°19'0 0.0
2017-Feb-19 11:32N 51°53' E 004°19'0 0.0
2017-Feb-19 10:32N 51°53' E 004°19'0 0.0
2017-Feb-19 09:33N 51°53' E 004°19'0 0.0
2017-Feb-19 08:33N 51°53' E 004°19'0 0.0
2017-Feb-19 07:32N 51°53' E 004°19'0 0.0
2017-Feb-19 06:32N 51°53' E 004°19'0 0.0
2017-Feb-19 05:32N 51°53' E 004°19'0 0.0
2017-Feb-19 04:33N 51°53' E 004°19'0 0.0
2017-Feb-19 03:29N 51°53' E 004°19'0 0.0
2017-Feb-19 02:33N 51°53' E 004°19'0 0.0
2017-Feb-19 01:33N 51°53' E 004°19'0 0.0
2017-Feb-19 00:32N 51°53' E 004°19'0 0.0
2017-Feb-18 23:33N 51°53' E 004°19'0 0.0
2017-Feb-18 22:33N 51°53' E 004°19'0 0.0
2017-Feb-18 21:33N 51°53' E 004°19'2 2.1
2017-Feb-18 20:34N 51°53' E 004°22'0 0.3
2017-Feb-18 19:05N 51°53' E 004°23'0 0.0
2017-Feb-18 18:11N 51°53' E 004°23'0 0.0
2017-Feb-18 17:29N 51°53' E 004°23'0 0.0
2017-Feb-18 16:29N 51°53' E 004°23'0 0.0
2017-Feb-18 15:27N 51°53' E 004°23'0 0.0
2017-Feb-18 12:33N 51°53' E 004°23'0 0.0
2017-Feb-18 11:27N 51°53' E 004°23'0 0.0
2017-Feb-18 10:18N 51°53' E 004°23'0 0.0
2017-Feb-18 09:33N 51°53' E 004°23'0 0.0
2017-Feb-18 08:33N 51°53' E 004°23'0 0.0
2017-Feb-18 07:18N 51°53' E 004°23'0 0.0
2017-Feb-18 05:27N 51°53' E 004°23'0 0.0
2017-Feb-18 04:24N 51°53' E 004°23'0 0.0
2017-Feb-17 22:08N 51°53' E 004°23'0 0.0
2017-Feb-17 19:18N 51°53' E 004°23'0 0.0
2017-Feb-17 17:24N 51°53' E 004°23'0 0.0
2017-Feb-17 16:30N 51°53' E 004°23'0 0.0
2017-Feb-17 15:06N 51°53' E 004°23'0 0.0
2017-Feb-17 14:12N 51°53' E 004°23'0 0.0
2017-Feb-17 13:24N 51°53' E 004°23'0 0.0
2017-Feb-17 11:30N 51°53' E 004°23'0 0.0
2017-Feb-17 10:34N 51°53' E 004°23'3 3.4
2017-Feb-17 09:33N 51°53' E 004°17'1 0.7
2017-Feb-17 08:34N 51°53' E 004°16'0 0.0
2017-Feb-17 07:34N 51°53' E 004°16'0 0.0
2017-Feb-17 06:34N 51°53' E 004°16'0 0.0
2017-Feb-17 05:34N 51°53' E 004°16'0 0.0
2017-Feb-17 04:33N 51°53' E 004°16'0 0.0
2017-Feb-17 03:34N 51°53' E 004°16'0 0.0
2017-Feb-17 02:33N 51°53' E 004°16'0 0.0
2017-Feb-17 01:34N 51°53' E 004°16'0 0.0
2017-Feb-17 00:34N 51°53' E 004°16'0 0.0
2017-Feb-16 23:33N 51°53' E 004°16'0 0.0
2017-Feb-16 22:33N 51°53' E 004°16'0 0.0
2017-Feb-16 21:34N 51°53' E 004°16'0 0.0
2017-Feb-16 20:34N 51°53' E 004°16'0 0.0
2017-Feb-16 19:33N 51°53' E 004°16'0 0.0
2017-Feb-16 18:34N 51°53' E 004°16'0 0.0
2017-Feb-16 17:34N 51°53' E 004°16'0 0.0
2017-Feb-16 16:34N 51°53' E 004°16'0 0.0
2017-Feb-16 15:34N 51°53' E 004°16'0 0.0
2017-Feb-16 14:33N 51°53' E 004°16'2 1.5
2017-Feb-16 13:33N 51°54' E 004°18'7 7.0
2017-Feb-16 12:34N 51°58' E 004°09'8 8.3
2017-Feb-16 11:34N 51°60' E 003°56'7 7.0
2017-Feb-16 10:34N 51°59' E 003°45'22 9.1
2017-Feb-16 08:12N 51°52' E 003°11'710.4
2017-Feb-16 07:32N 51°50' E 003°00'1110.8
2017-Feb-16 06:33N 51°47' E 002°44'1211.2
2017-Feb-16 05:28N 51°40' E 002°29'1111.9
2017-Feb-16 04:34N 51°31' E 002°18'1211.6
2017-Feb-16 03:33N 51°22' E 002°07'1111.3
2017-Feb-16 02:33N 51°12' E 001°58'1312.6
2017-Feb-16 01:33N 51°04' E 001°43'1212.3
2017-Feb-16 00:33N 50°55' E 001°30'6010.0
2017-Feb-15 18:33N 50°22' E 000°11'1010.1
2017-Feb-15 17:33N 50°19' W 000°04'10612.6
2017-Feb-15 09:07N 49°50' W 002°43'813.4
2017-Feb-15 08:33N 49°48' W 002°54'1313.0
2017-Feb-15 07:33N 49°41' W 003°12'10210.9
2017-Feb-14 22:14N 48°51' W 005°27'  
2017-Feb-12 14:31N 39°15' W 009°57'1111.6
2017-Feb-12 13:33N 39°04' W 009°57'1111.4
2017-Feb-12 12:33N 38°52' W 009°57'1111.1
2017-Feb-12 11:33N 38°41' W 009°56'1111.0
2017-Feb-12 10:33N 38°30' W 009°53'1111.1
2017-Feb-12 09:33N 38°19' W 009°50'1311.2
2017-Feb-12 08:22N 38°06' W 009°46'238 9.5
2017-Feb-11 07:22N 35°57' W 005°36'7 8.2
2017-Feb-11 06:34N 35°60' W 005°29'9 9.0
2017-Feb-11 05:34N 36°02' W 005°18'10 9.5
2017-Feb-11 04:33N 36°05' W 005°07'  

Dump ship's entire track history